Beaver Island, MI (49782)

6:42 PM EST on February 11, 2016 (GMT -0500)
Lake Geneserath | | Change Station
CLOSE
Current Station
Personal Weather Station
Location: Beaver Island, MI
Elevation: 603 ft
Nearby Weather Stations
Active Advisory: Winter Weather Advisory

Elev 603 ft 45.59 °N, 85.53 °W | Updated 26 seconds ago

Overcast
Overcast
18.5 °F
Feels Like 8 °F
N
8.9
Wind Variable Wind from NW
Gusts 9.8 mph

Today
High -- | Low -- °F
--% Chance of Precip.
Yesterday
High -- | Low -- °F
Precip. -- in
Pressure 30.14 in
Visibility 10.0 miles
Clouds Overcast 4000 ft
Windchill 8 °F
Dew Point 0 °F
Humidity 44%
Rainfall 0.00 in
Snow Depth Not available.
7:50 AM 6:02 PM
Waxing Crescent, 15% visible
METAR KSJX 112336Z AUTO 29008KT 10SM OVC040 M08/M14 A3014 RMK AO2 T10801139
Pressure 30.14 in
Visibility 10.0 miles
Clouds Overcast 4000 ft
Windchill 8 °F
Dew Point 0 °F
Humidity 44%
Rainfall 0.00 in
Snow Depth Not available.
7:50 AM 6:02 PM
Waxing Crescent, 15% visible
METAR KSJX 112336Z AUTO 29008KT 10SM OVC040 M08/M14 A3014 RMK AO2 T10801139

10-Day Weather Forecast

Almanac

Astronomy

Feb. 11, 2016 Rise Set
Actual Time
Civil Twilight
Nautical Twilight
Astronomical Twilight
Moon
Length of Visible Light
Length of Day
Tomorrow will be .
, % of the Moon is Illuminated

Today's Extremes

State Highs State Lows

Community

WunderPhotos

Upload Photos

1,892,180 photos uploaded!

WunderBlog® & News

Nearby

Air Quality

  Air Quality AQ Index Pollutant
Not available.

Snow Depth

Station Depth Elevation

Earthquake Activity

City Distance Mag. Time & Date
Minimum magnitude displayed is 2.5.

Coastal Water Temperatures

Place Temperature

Stations

Nearby Weather Stations

Station Location Temp. Windchill Dew Point Humidity Wind Precip. Elev Updated Type
                   

Watches & Warnings

Winter Weather Advisory
Issued: 3:46 PM EST Feb. 11, 2016 – National Weather Service

... Winter Weather Advisory in effect from 7 am to 4 PM EST
Friday...

The National Weather Service in Gaylord has issued a Winter
Weather Advisory... which is in effect from 7 am to 4 PM EST
Friday.

* Lake effect snow will occur in northwest lower Michigan Friday.

* Accumulations of 2 to 4 inches will occur... with the highest
amounts expected in the Traverse City and Kalkaska areas.

* Gusty northwest winds will result in blowing and drifting
snow... and contribute to sharply limited visibilities at times.

Precautionary/preparedness actions...

A Winter Weather Advisory for lake effect snow and blowing snow
means that visibilities will be limited due to a combination of
falling and blowing snow. Use caution when traveling... especially
in open areas.



Jz